Time;durP1;ratioP1;P1;durP2;ratioP2;P2;SDS_P1;SDS_P2;PMS_P1;PMS_P2;Temp;Humidity;BMP_temperature;BMP_pressure;BME280_temperature;BME280_humidity;BME280_pressure;Samples;Min_cycle;Max_cycle;Signal;HPM_P1;HPM_P2
2022/07/12 00:02:12;;;;;;;1.45;1.15;;;;;;;17.43;nan;101239.38;5026809;28;20030;-69
2022/07/12 00:04:38;;;;;;;2.20;1.30;;;;;;;17.38;nan;101228.41;5028067;28;20030;-68
2022/07/12 00:07:04;;;;;;;1.60;1.15;;;;;;;17.32;nan;101234.44;5025889;28;20130;-68
2022/07/12 00:09:29;;;;;;;1.58;1.08;;;;;;;17.25;nan;101234.31;5028799;28;20038;-68
2022/07/12 00:11:55;;;;;;;1.75;1.20;;;;;;;17.17;nan;101232.53;5027918;28;20025;-69
2022/07/12 00:14:20;;;;;;;1.52;1.25;;;;;;;17.18;nan;101231.56;5028966;28;20045;-68
2022/07/12 00:16:46;;;;;;;1.48;1.20;;;;;;;17.19;nan;101233.19;5027302;28;20560;-68
2022/07/12 00:19:11;;;;;;;1.90;1.27;;;;;;;17.22;nan;101237.34;5028214;28;20136;-68
2022/07/12 00:21:36;;;;;;;1.95;1.15;;;;;;;17.24;nan;101237.19;5026015;28;20387;-69
2022/07/12 00:24:02;;;;;;;2.60;1.50;;;;;;;17.29;nan;101237.47;5028192;28;20559;-70
2022/07/12 00:26:27;;;;;;;1.90;1.33;;;;;;;17.26;nan;101233.31;5028791;28;20033;-68
2022/07/12 00:28:52;;;;;;;1.70;1.20;;;;;;;17.23;nan;101235.50;5028194;28;20040;-69
2022/07/12 00:31:18;;;;;;;2.22;1.50;;;;;;;17.13;nan;101239.25;5027456;28;20030;-69
2022/07/12 00:33:43;;;;;;;1.45;1.20;;;;;;;17.08;nan;101230.09;5028363;28;20040;-68
2022/07/12 00:36:08;;;;;;;1.80;1.38;;;;;;;17.04;nan;101229.66;5025208;28;20037;-69
2022/07/12 00:38:34;;;;;;;1.27;1.10;;;;;;;17.03;nan;101238.66;5028393;28;20042;-68
2022/07/12 00:40:59;;;;;;;2.03;1.33;;;;;;;17.02;nan;101226.31;5029503;28;20483;-68
2022/07/12 00:43:25;;;;;;;1.75;1.35;;;;;;;17.01;nan;101238.00;5028334;28;20120;-68
2022/07/12 00:45:50;;;;;;;2.13;1.40;;;;;;;16.98;nan;101222.31;5026467;28;20072;-68
2022/07/12 00:48:17;;;;;;;2.38;1.50;;;;;;;16.97;nan;101228.66;5028008;28;20048;-69
2022/07/12 00:50:45;;;;;;;2.17;1.55;;;;;;;16.95;nan;101225.34;5027967;28;20189;-69
2022/07/12 00:53:10;;;;;;;2.25;1.30;;;;;;;16.92;nan;101229.22;5011620;28;20034;-68
2022/07/12 00:55:35;;;;;;;2.15;1.50;;;;;;;16.88;nan;101221.72;5028721;28;20084;-68
2022/07/12 00:58:01;;;;;;;1.70;1.30;;;;;;;16.85;nan;101225.59;5028403;28;20594;-69
2022/07/12 01:00:28;;;;;;;2.35;1.30;;;;;;;16.80;nan;101221.75;5026899;28;20049;-69
2022/07/12 01:02:55;;;;;;;1.40;1.30;;;;;;;16.74;nan;101216.09;5026364;28;20041;-69
2022/07/12 01:05:21;;;;;;;1.50;1.23;;;;;;;16.68;nan;101213.28;5025164;28;20486;-68
2022/07/12 01:07:46;;;;;;;1.95;1.20;;;;;;;16.64;nan;101220.81;5027666;28;20034;-68
2022/07/12 01:10:12;;;;;;;1.90;1.40;;;;;;;16.58;nan;101213.50;5026338;28;20025;-69
2022/07/12 01:12:37;;;;;;;2.60;1.38;;;;;;;16.55;nan;101211.19;5030714;28;20039;-69
2022/07/12 01:15:07;;;;;;;2.35;1.90;;;;;;;16.58;nan;101210.00;5024775;28;20037;-68
2022/07/12 01:17:32;;;;;;;1.80;1.40;;;;;;;16.53;nan;101211.34;5027990;28;20125;-68
2022/07/12 01:19:59;;;;;;;1.92;1.35;;;;;;;16.47;nan;101211.19;5026400;28;20490;-68
2022/07/12 01:22:31;;;;;;;1.92;1.40;;;;;;;16.44;nan;101216.91;5025134;28;20068;-68
2022/07/12 01:24:57;;;;;;;1.90;1.23;;;;;;;16.42;nan;101210.88;5026667;28;20338;-69
2022/07/12 01:27:23;;;;;;;2.53;1.67;;;;;;;16.39;nan;101208.56;5026340;28;20414;-68
2022/07/12 01:29:48;;;;;;;1.90;1.48;;;;;;;16.39;nan;101216.59;5026605;28;20045;-68
2022/07/12 01:32:26;;;;;;;1.77;1.50;;;;;;;16.38;nan;101217.59;5026131;28;20273;-68
2022/07/12 01:34:56;;;;;;;1.60;1.30;;;;;;;16.34;nan;101215.25;5026796;28;20061;-68
2022/07/12 01:37:23;;;;;;;1.98;1.58;;;;;;;16.30;nan;101213.97;5026893;28;20033;-68
2022/07/12 01:39:50;;;;;;;2.05;1.55;;;;;;;16.26;nan;101217.97;5031430;28;20052;-69
2022/07/12 01:42:16;;;;;;;2.28;1.48;;;;;;;16.25;nan;101221.63;5025465;28;20036;-69
2022/07/12 01:44:41;;;;;;;1.42;1.10;;;;;;;16.21;nan;101224.81;5026184;28;20425;-69
2022/07/12 01:47:07;;;;;;;2.08;1.38;;;;;;;16.19;nan;101225.00;5025197;28;20624;-69
2022/07/12 01:49:32;;;;;;;;;;;;;;;16.13;nan;101217.66;5028698;28;20144;-69
2022/07/12 01:51:58;;;;;;;2.20;1.57;;;;;;;16.12;nan;101214.16;5028285;28;19967;-69
2022/07/12 01:54:25;;;;;;;2.50;1.42;;;;;;;16.08;nan;101218.19;5026685;28;20033;-68
2022/07/12 01:56:52;;;;;;;2.63;1.40;;;;;;;16.06;nan;101214.00;5027127;28;20164;-69
2022/07/12 01:59:18;;;;;;;1.90;1.40;;;;;;;16.04;nan;101216.03;5011485;28;20048;-69
2022/07/12 02:01:45;;;;;;;1.90;1.30;;;;;;;16.01;nan;101214.53;5027098;28;20065;-69
2022/07/12 02:04:10;;;;;;;1.60;1.30;;;;;;;15.99;nan;101219.19;5026045;28;20506;-68
2022/07/12 02:06:36;;;;;;;2.03;1.35;;;;;;;15.97;nan;101221.22;5026367;28;20053;-68
2022/07/12 02:09:01;;;;;;;;;;;;;;;15.92;nan;101213.72;5029470;28;20555;-68
2022/07/12 02:11:26;;;;;;;;;;;;;;;15.92;nan;101218.22;5026296;28;19932;-68
2022/07/12 02:13:51;;;;;;;1.87;1.50;;;;;;;15.91;nan;101217.38;5025629;28;19991;-68
2022/07/12 02:16:17;;;;;;;2.08;1.40;;;;;;;15.89;nan;101214.06;5023418;28;20034;-68
2022/07/12 02:18:43;;;;;;;2.08;1.50;;;;;;;15.90;nan;101221.06;5026214;28;20057;-68
2022/07/12 02:21:08;;;;;;;1.63;1.40;;;;;;;15.86;nan;101219.72;5007900;28;20072;-67
2022/07/12 02:23:33;;;;;;;1.77;1.38;;;;;;;15.81;nan;101216.75;5027520;28;20490;-68
2022/07/12 02:25:58;;;;;;;2.03;1.40;;;;;;;15.77;nan;101226.06;5026759;28;20200;-68
2022/07/12 02:28:24;;;;;;;1.77;1.40;;;;;;;15.73;nan;101218.56;5024812;28;20049;-68
2022/07/12 02:30:49;;;;;;;2.85;1.45;;;;;;;15.65;nan;101209.56;5029090;28;20067;-68
2022/07/12 02:33:15;;;;;;;2.10;1.50;;;;;;;15.62;nan;101217.06;5030730;28;20402;-68
2022/07/12 02:35:41;;;;;;;1.40;1.10;;;;;;;15.67;nan;101204.06;5035266;28;20509;-68
2022/07/12 02:38:07;;;;;;;1.52;1.20;;;;;;;15.50;nan;101206.75;5030720;28;20026;-69
2022/07/12 02:43:16;;;;;;;1.33;1.10;;;;;;;15.32;nan;101211.41;5030464;28;20069;-68
2022/07/12 02:45:41;;;;;;;1.60;1.25;;;;;;;15.24;nan;101214.06;5032249;28;20413;-68
2022/07/12 02:48:06;;;;;;;1.67;1.33;;;;;;;15.18;nan;101223.56;5009145;28;20079;-69
2022/07/12 02:50:31;;;;;;;2.22;1.55;;;;;;;15.11;nan;101221.72;5029214;28;20217;-68
2022/07/12 02:52:57;;;;;;;1.57;1.40;;;;;;;15.02;nan;101227.03;5030475;28;20037;-68
2022/07/12 02:55:22;;;;;;;2.17;1.60;;;;;;;14.97;nan;101234.69;5032525;28;20521;-68
2022/07/12 02:57:48;;;;;;;1.80;1.35;;;;;;;14.90;nan;101236.34;5015045;28;20034;-68
2022/07/12 03:00:14;;;;;;;;;;;;;;;14.80;nan;101233.81;5029546;28;20043;-67
2022/07/12 03:02:39;;;;;;;2.22;1.70;;;;;;;14.76;nan;101244.94;5012252;28;20372;-68
2022/07/12 03:05:05;;;;;;;6.53;1.90;;;;;;;14.72;nan;101244.41;5035934;28;20037;-68
2022/07/12 03:07:30;;;;;;;3.25;2.10;;;;;;;14.69;nan;101242.09;5029005;28;20041;-68
2022/07/12 03:09:56;;;;;;;3.22;2.08;;;;;;;14.64;nan;101239.06;5026227;28;20034;-68
2022/07/12 03:12:21;;;;;;;;;;;;;;;14.59;nan;101244.88;5027591;28;20281;-68
2022/07/12 03:14:46;;;;;;;2.77;1.93;;;;;;;14.58;nan;101256.50;5029945;28;19982;-68
2022/07/12 03:17:11;;;;;;;2.97;2.20;;;;;;;14.56;nan;101260.31;5032145;28;20049;-67
2022/07/12 03:19:37;;;;;;;3.83;2.90;;;;;;;14.53;nan;101256.13;5031227;28;20049;-68
2022/07/12 03:22:02;;;;;;;3.05;2.30;;;;;;;14.53;nan;101263.28;5031089;28;20033;-68
2022/07/12 03:24:27;;;;;;;4.72;2.20;;;;;;;14.51;nan;101257.28;5008880;28;20041;-68
2022/07/12 03:26:53;;;;;;;2.67;2.00;;;;;;;14.53;nan;101263.28;5014423;28;20045;-68
2022/07/12 03:29:18;;;;;;;2.65;1.73;;;;;;;14.53;nan;101256.13;5029021;28;20037;-68
2022/07/12 03:31:43;;;;;;;2.05;1.52;;;;;;;14.51;nan;101254.63;5029297;28;20064;-68
2022/07/12 03:34:08;;;;;;;3.40;2.22;;;;;;;14.56;nan;101257.66;5029633;28;20086;-69
2022/07/12 03:36:34;;;;;;;3.30;2.30;;;;;;;14.63;nan;101258.69;5028231;28;20037;-68
2022/07/12 03:38:59;;;;;;;2.53;1.83;;;;;;;14.62;nan;101257.88;5029120;28;20275;-68
2022/07/12 03:41:24;;;;;;;1.87;1.57;;;;;;;14.58;nan;101261.00;5028269;28;20053;-68
2022/07/12 03:43:49;;;;;;;3.17;1.95;;;;;;;14.53;nan;101269.44;5029864;28;20645;-68
2022/07/12 03:46:15;;;;;;;;;;;;;;;14.47;nan;101270.09;5030453;28;20362;-68
2022/07/12 03:48:40;;;;;;;3.08;1.75;;;;;;;14.45;nan;101266.75;5028519;28;19960;-68
2022/07/12 03:51:05;;;;;;;2.95;2.05;;;;;;;14.44;nan;101271.25;5030060;28;20036;-68
2022/07/12 03:53:30;;;;;;;2.67;1.67;;;;;;;14.45;nan;101266.75;5028400;28;20051;-67
2022/07/12 03:55:56;;;;;;;3.07;1.90;;;;;;;14.43;nan;101263.41;5013445;28;20036;-68
2022/07/12 03:58:21;;;;;;;2.90;1.90;;;;;;;14.36;nan;101262.38;5013201;28;20796;-68
2022/07/12 04:00:46;;;;;;;3.97;2.50;;;;;;;14.33;nan;101268.00;5032143;28;20621;-68
2022/07/12 04:03:12;;;;;;;2.72;1.80;;;;;;;14.34;nan;101269.66;5029709;28;20494;-68
2022/07/12 04:05:38;;;;;;;3.38;1.80;;;;;;;14.33;nan;101276.81;5028683;28;20057;-68
2022/07/12 04:08:04;;;;;;;2.42;1.73;;;;;;;14.35;nan;101274.00;5027121;28;20042;-69
2022/07/12 04:10:29;;;;;;;2.88;1.60;;;;;;;14.35;nan;101276.66;5012814;28;20060;-70
2022/07/12 04:12:54;;;;;;;2.20;1.50;;;;;;;14.37;nan;101267.53;5010621;28;20033;-69
2022/07/12 04:15:20;;;;;;;2.05;1.52;;;;;;;14.41;nan;101271.53;5021200;28;20129;-70
2022/07/12 04:17:45;;;;;;;1.90;1.50;;;;;;;14.54;nan;101260.50;5011795;28;20076;-69
2022/07/12 04:20:11;;;;;;;1.80;1.27;;;;;;;14.68;nan;101258.22;5028410;28;20041;-69
2022/07/12 04:22:37;;;;;;;3.03;1.40;;;;;;;14.80;nan;101260.44;5026617;28;20041;-69
2022/07/12 04:25:03;;;;;;;1.85;1.40;;;;;;;14.89;nan;101260.44;5027993;28;20111;-69
2022/07/12 04:27:28;;;;;;;1.80;1.30;;;;;;;14.95;nan;101257.97;5027794;28;20029;-69
2022/07/12 04:29:53;;;;;;;3.03;1.30;;;;;;;15.01;nan;101261.81;5027710;28;20128;-69
2022/07/12 04:32:19;;;;;;;1.67;1.10;;;;;;;15.07;nan;101258.50;5026092;28;20046;-70
2022/07/12 04:34:44;;;;;;;1.60;1.10;;;;;;;15.09;nan;101261.84;5028275;28;20360;-70
2022/07/12 04:37:09;;;;;;;1.92;1.10;;;;;;;15.12;nan;101258.84;5026326;28;20026;-69
2022/07/12 04:39:35;;;;;;;1.35;1.10;;;;;;;15.16;nan;101264.66;5031189;28;20037;-69
2022/07/12 04:42:00;;;;;;;1.38;1.10;;;;;;;15.19;nan;101265.19;5010218;28;20087;-69
2022/07/12 04:44:25;;;;;;;1.73;1.10;;;;;;;15.22;nan;101270.19;5026976;28;20037;-70
2022/07/12 04:46:51;;;;;;;2.08;1.00;;;;;;;15.25;nan;101269.00;5010119;28;20044;-70
2022/07/12 04:49:16;;;;;;;2.20;1.20;;;;;;;15.28;nan;101274.03;5027101;28;20034;-70
2022/07/12 04:51:41;;;;;;;1.40;1.10;;;;;;;15.34;nan;101270.69;5027283;28;20363;-69
2022/07/12 04:54:07;;;;;;;1.67;1.10;;;;;;;15.39;nan;101273.69;5026006;28;20033;-70
2022/07/12 04:56:33;;;;;;;1.77;1.20;;;;;;;15.45;nan;101273.03;5027235;28;20280;-69
2022/07/12 04:58:58;;;;;;;1.63;1.00;;;;;;;15.50;nan;101278.72;5027869;28;20072;-69
2022/07/12 05:01:23;;;;;;;1.83;1.13;;;;;;;15.56;nan;101271.03;5027159;28;20048;-70
2022/07/12 05:03:49;;;;;;;1.10;1.00;;;;;;;15.63;nan;101274.72;5026005;28;20395;-70
2022/07/12 05:06:14;;;;;;;1.55;1.10;;;;;;;15.67;nan;101276.06;5026882;28;20037;-70
2022/07/12 05:08:39;;;;;;;1.10;0.90;;;;;;;15.73;nan;101277.25;5026643;28;20041;-71
2022/07/12 05:11:05;;;;;;;1.35;1.02;;;;;;;15.76;nan;101271.59;5028538;28;20029;-70
2022/07/12 05:13:30;;;;;;;1.73;1.23;;;;;;;15.85;nan;101283.91;5027905;28;20501;-70
2022/07/12 05:15:56;;;;;;;1.17;0.70;;;;;;;15.96;nan;101282.75;5026073;28;20044;-70
2022/07/12 05:18:21;;;;;;;1.20;0.90;;;;;;;16.04;nan;101288.03;5025874;28;20048;-70
2022/07/12 05:20:47;;;;;;;1.30;1.08;;;;;;;16.10;nan;101285.53;5026463;28;20045;-71
2022/07/12 05:23:12;;;;;;;1.60;1.10;;;;;;;16.22;nan;101288.69;5026078;28;20036;-70
2022/07/12 05:25:37;;;;;;;1.20;1.00;;;;;;;16.35;nan;101289.00;5026785;28;20532;-70
2022/07/12 05:28:03;;;;;;;1.35;1.10;;;;;;;16.50;nan;101296.31;5027096;28;20067;-70
2022/07/12 05:30:29;;;;;;;1.52;1.20;;;;;;;16.62;nan;101297.59;5025377;28;20129;-71
2022/07/12 05:32:54;;;;;;;1.33;1.00;;;;;;;16.79;nan;101293.03;5025891;28;20592;-70
2022/07/12 05:35:20;;;;;;;1.20;0.90;;;;;;;17.06;nan;101302.41;5009200;28;20787;-71
2022/07/12 05:37:45;;;;;;;1.10;0.90;;;;;;;17.28;nan;101308.81;5023743;28;20423;-70
2022/07/12 05:40:10;;;;;;;1.20;0.90;;;;;;;17.46;nan;101307.69;5027393;28;20415;-70
2022/07/12 05:42:36;;;;;;;1.80;1.02;;;;;;;17.51;nan;101308.81;5025794;28;20052;-70
2022/07/12 05:45:02;;;;;;;1.80;1.40;;;;;;;17.62;nan;101307.59;5028587;28;20036;-70
2022/07/12 05:47:28;;;;;;;2.30;1.60;;;;;;;17.76;nan;101312.16;5027314;28;20384;-71
2022/07/12 05:49:53;;;;;;;2.40;1.70;;;;;;;18.01;nan;101320.81;5027171;28;20353;-71
2022/07/12 05:55:03;;;;;;;2.05;1.50;;;;;;;18.97;nan;101136.03;5030920;28;20040;-71
2022/07/12 05:57:28;;;;;;;2.30;1.55;;;;;;;19.39;nan;101171.03;5026872;28;20030;-71
2022/07/12 05:59:53;;;;;;;2.17;1.42;;;;;;;19.86;nan;101193.72;5027154;28;20372;-71
2022/07/12 06:02:19;;;;;;;4.35;1.35;;;;;;;20.36;nan;101320.63;5027057;28;20037;-71
2022/07/12 06:04:44;;;;;;;2.13;1.13;;;;;;;20.94;nan;101336.47;5027183;28;20029;-71
2022/07/12 06:07:09;;;;;;;2.45;1.30;;;;;;;21.34;nan;101336.63;5031419;28;20133;-71
2022/07/12 06:09:35;;;;;;;2.10;1.25;;;;;;;21.83;nan;101344.38;5030615;28;20516;-69
2022/07/12 06:12:00;;;;;;;2.10;1.10;;;;;;;22.29;nan;101344.63;5032379;28;20065;-72
2022/07/12 06:14:25;;;;;;;2.15;0.98;;;;;;;22.45;nan;101350.38;5033103;28;20038;-71
2022/07/12 06:16:51;;;;;;;1.30;0.90;;;;;;;22.64;nan;101354.06;5031347;28;20040;-72
2022/07/12 06:19:16;;;;;;;1.60;1.08;;;;;;;22.85;nan;101349.44;5031112;28;20044;-71
2022/07/12 06:21:41;;;;;;;1.75;1.17;;;;;;;23.18;nan;101348.50;5029634;28;20053;-69
2022/07/12 06:24:06;;;;;;;3.30;1.50;;;;;;;23.29;nan;101356.75;5030602;28;20038;-72
2022/07/12 06:26:32;;;;;;;2.00;1.20;;;;;;;23.46;nan;101353.53;5030392;28;20037;-72
2022/07/12 06:28:57;;;;;;;1.30;0.90;;;;;;;23.69;nan;101351.09;5030734;28;20303;-71
2022/07/12 06:31:25;;;;;;;2.20;1.08;;;;;;;24.08;nan;101346.44;5013970;28;20038;-72
2022/07/12 06:33:51;;;;;;;1.67;0.90;;;;;;;24.53;nan;101348.97;5030729;28;20052;-71
2022/07/12 06:36:16;;;;;;;0.85;0.75;;;;;;;24.71;nan;101348.13;5032834;28;20037;-71
2022/07/12 06:38:41;;;;;;;1.70;0.80;;;;;;;24.92;nan;101357.66;5030908;28;20518;-72
2022/07/12 06:41:06;;;;;;;1.70;0.83;;;;;;;25.31;nan;101355.50;5035318;28;20045;-71
2022/07/12 06:43:32;;;;;;;1.35;0.90;;;;;;;25.56;nan;101362.69;5029628;28;20768;-71
2022/07/12 06:45:57;;;;;;;2.70;1.00;;;;;;;25.58;nan;101357.84;5030416;28;20040;-72
2022/07/12 06:48:22;;;;;;;5.68;1.92;;;;;;;25.69;nan;101370.59;5028600;28;20303;-71
2022/07/12 06:50:48;;;;;;;1.90;1.05;;;;;;;25.75;nan;101374.28;5028249;28;20054;-72
2022/07/12 06:53:14;;;;;;;1.23;0.80;;;;;;;25.79;nan;101368.16;5033473;28;20118;-71
2022/07/12 06:55:39;;;;;;;1.52;0.77;;;;;;;25.93;nan;101370.66;5030323;28;20038;-72
2022/07/12 06:58:05;;;;;;;1.75;0.80;;;;;;;25.97;nan;101369.16;5025377;28;20025;-72
2022/07/12 07:00:30;;;;;;;1.13;0.82;;;;;;;26.09;nan;101369.97;5031390;28;20057;-72
2022/07/12 07:02:56;;;;;;;0.90;0.70;;;;;;;26.48;nan;101375.75;5028495;28;20474;-71
2022/07/12 07:05:22;;;;;;;1.35;0.70;;;;;;;26.76;nan;101374.22;5030089;28;20711;-71
2022/07/12 07:07:47;;;;;;;1.13;0.60;;;;;;;26.96;nan;101377.38;5029914;28;20037;-71
2022/07/12 07:10:12;;;;;;;0.80;0.60;;;;;;;27.21;nan;101379.78;5018700;28;20421;-71
2022/07/12 07:12:38;;;;;;;0.70;0.50;;;;;;;27.46;nan;101379.44;5028043;28;20042;-72
2022/07/12 07:15:03;;;;;;;0.85;0.50;;;;;;;27.45;nan;101379.69;5029387;28;20451;-71
2022/07/12 07:17:29;;;;;;;0.50;0.40;;;;;;;27.60;nan;101377.25;5023638;28;20454;-72
2022/07/12 07:19:54;;;;;;;0.60;0.40;;;;;;;27.85;nan;101378.78;5032054;28;20472;-72
2022/07/12 07:22:19;;;;;;;2.03;0.50;;;;;;;27.89;nan;101382.66;5029803;28;20277;-72
2022/07/12 07:24:46;;;;;;;0.70;0.40;;;;;;;27.87;nan;101380.19;5028920;28;20395;-72
2022/07/12 07:27:11;;;;;;;0.65;0.40;;;;;;;28.20;nan;101383.97;5028494;28;20284;-71
2022/07/12 07:32:21;;;;;;;1.42;0.60;;;;;;;28.56;nan;101381.81;5026725;28;20124;-71
2022/07/12 07:34:46;;;;;;;0.40;0.35;;;;;;;28.77;nan;101374.72;5027388;28;22012;-72
2022/07/12 07:37:11;;;;;;;0.75;0.30;;;;;;;28.93;nan;101371.09;5012751;28;20039;-71
2022/07/12 07:39:37;;;;;;;0.68;0.40;;;;;;;29.07;nan;101363.41;5035511;28;20448;-72
2022/07/12 07:42:03;;;;;;;0.80;0.32;;;;;;;29.26;nan;101361.16;5013638;28;20506;-72
2022/07/12 07:44:28;;;;;;;0.30;0.20;;;;;;;29.36;nan;101365.88;5028469;28;20121;-72
2022/07/12 07:46:53;;;;;;;0.55;0.40;;;;;;;29.41;nan;101360.47;5031972;28;20038;-72
2022/07/12 07:49:19;;;;;;;0.43;0.30;;;;;;;29.48;nan;101357.56;5030687;28;20427;-72
2022/07/12 07:51:44;;;;;;;0.32;0.30;;;;;;;29.59;nan;101360.13;5028723;28;20029;-72
2022/07/12 07:54:09;;;;;;;0.30;0.30;;;;;;;30.02;nan;101358.31;5033649;28;20099;-72
2022/07/12 07:56:34;;;;;;;1.13;0.33;;;;;;;30.18;nan;101363.88;5030607;28;20068;-72
2022/07/12 07:59:00;;;;;;;0.75;0.40;;;;;;;30.09;nan;101360.00;5029700;28;20781;-72
2022/07/12 08:01:42;;;;;;;0.55;0.40;;;;;;;30.58;nan;101362.47;5029286;28;20042;-72
2022/07/12 08:04:18;;;;;;;0.43;0.30;;;;;;;30.49;nan;101359.47;5028899;28;20868;-72
2022/07/12 08:06:44;;;;;;;0.50;0.40;;;;;;;30.66;nan;101365.53;5027084;28;20650;-72
2022/07/12 08:09:09;;;;;;;0.85;0.40;;;;;;;31.00;nan;101364.34;5027946;28;20035;-70
2022/07/12 08:11:36;;;;;;;0.30;0.30;;;;;;;31.49;nan;101370.22;5028395;28;20037;-72
2022/07/12 08:14:03;;;;;;;0.20;0.20;;;;;;;31.64;nan;101365.84;5029788;28;20092;-72
2022/07/12 08:16:28;;;;;;;0.45;0.40;;;;;;;31.86;nan;101363.66;5028551;28;20339;-73
2022/07/12 08:18:54;;;;;;;0.32;0.32;;;;;;;32.21;nan;101366.66;5030358;28;20103;-72
2022/07/12 08:21:20;;;;;;;0.50;0.35;;;;;;;32.27;nan;101371.81;5013009;28;20468;-72
2022/07/12 08:23:45;;;;;;;0.60;0.30;;;;;;;31.80;nan;101372.13;5008305;28;20048;-72
2022/07/12 08:26:10;;;;;;;0.30;0.28;;;;;;;30.86;nan;101369.47;5029855;28;20041;-72
2022/07/12 08:28:35;;;;;;;0.38;0.38;;;;;;;30.41;nan;101377.13;5028262;28;20053;-71
2022/07/12 08:31:01;;;;;;;0.63;0.40;;;;;;;29.55;nan;101363.63;5030006;28;20045;-71
2022/07/12 08:33:26;;;;;;;0.50;0.40;;;;;;;29.28;nan;101369.91;5029585;28;20093;-71
2022/07/12 08:35:52;;;;;;;0.40;0.30;;;;;;;30.21;nan;101369.63;5029494;28;20052;-72
2022/07/12 08:38:17;;;;;;;0.93;0.30;;;;;;;30.98;nan;101371.97;5028842;28;20033;-72
2022/07/12 08:40:43;;;;;;;0.20;0.20;;;;;;;31.67;nan;101365.28;5035012;28;20050;-71
2022/07/12 08:43:09;;;;;;;0.20;0.20;;;;;;;31.95;nan;101366.69;5030516;28;20060;-72
2022/07/12 08:45:34;;;;;;;0.20;0.20;;;;;;;31.16;nan;101376.13;5019113;28;20129;-72
2022/07/12 08:48:00;;;;;;;0.30;0.30;;;;;;;30.95;nan;101367.88;5016814;28;20122;-71
2022/07/12 08:50:26;;;;;;;0.40;0.30;;;;;;;30.57;nan;101375.31;5031317;28;20048;-70
2022/07/12 08:52:53;;;;;;;0.40;0.40;;;;;;;31.13;nan;101369.31;5033655;28;20042;-71
2022/07/12 08:55:25;;;;;;;0.80;0.45;;;;;;;31.81;nan;101365.56;5031037;28;20034;-72
2022/07/12 08:57:53;;;;;;;0.35;0.30;;;;;;;31.10;nan;101364.34;5030316;28;20033;-71
2022/07/12 09:00:20;;;;;;;0.50;0.22;;;;;;;31.76;nan;101371.84;5030280;28;20421;-71
2022/07/12 09:02:57;;;;;;;0.40;0.30;;;;;;;31.64;nan;101366.66;5022770;28;20556;-70
2022/07/12 09:05:24;;;;;;;0.77;0.47;;;;;;;31.66;nan;101375.41;5064549;28;20040;-71
2022/07/12 09:07:51;;;;;;;0.50;0.40;;;;;;;31.94;nan;101368.56;5031144;28;20040;-71
2022/07/12 09:10:17;;;;;;;0.30;0.30;;;;;;;32.34;nan;101364.13;5027720;28;20055;-71
2022/07/12 09:12:44;;;;;;;0.40;0.30;;;;;;;33.06;nan;101361.19;5025623;28;20034;-72
2022/07/12 09:15:19;;;;;;;0.30;0.30;;;;;;;33.82;nan;101357.09;5028738;28;20658;-72
2022/07/12 09:17:54;;;;;;;0.25;0.20;;;;;;;34.13;nan;101359.53;5026164;28;20044;-71
2022/07/12 09:20:19;;;;;;;0.35;0.30;;;;;;;34.44;nan;101360.06;5024210;28;20573;-71
2022/07/12 09:22:52;;;;;;;1.08;0.30;;;;;;;35.17;nan;101373.72;5022869;28;20171;-71
2022/07/12 09:25:20;;;;;;;0.75;0.40;;;;;;;35.64;nan;101366.41;5023224;28;20052;-69
2022/07/12 09:27:54;;;;;;;0.30;0.30;;;;;;;35.94;nan;101365.06;5005851;28;20038;-69
2022/07/12 09:30:21;;;;;;;0.63;0.30;;;;;;;36.50;nan;101354.94;5021895;28;20057;-69
2022/07/12 09:36:12;;;;;;;0.20;0.20;;;;;;;36.97;nan;101352.81;5024749;28;20048;-70
2022/07/12 09:39:07;;;;;;;0.28;0.10;;;;;;;37.18;nan;101354.00;5026730;28;20033;-70
2022/07/12 09:41:33;;;;;;;0.32;0.22;;;;;;;37.13;nan;101350.56;5009928;28;20465;-70
2022/07/12 09:43:58;;;;;;;0.30;0.30;;;;;;;37.21;nan;101349.84;5028690;28;20038;-70
2022/07/12 09:46:24;;;;;;;0.60;0.30;;;;;;;37.75;nan;101356.22;5027350;28;20473;-70
2022/07/12 09:48:50;;;;;;;0.20;0.20;;;;;;;37.60;nan;101351.13;5026891;28;20033;-70
2022/07/12 09:51:17;;;;;;;0.30;0.30;;;;;;;37.99;nan;101353.13;5027702;28;20430;-70
2022/07/12 09:53:47;;;;;;;0.20;0.20;;;;;;;38.23;nan;101347.25;5028179;28;20030;-70
2022/07/12 09:56:14;;;;;;;0.30;0.30;;;;;;;38.51;nan;101343.44;5024010;28;20092;-70
2022/07/12 09:58:54;;;;;;;0.20;0.20;;;;;;;38.97;nan;101345.66;5026396;28;20041;-70
2022/07/12 10:01:20;;;;;;;0.20;0.10;;;;;;;39.20;nan;101345.50;5024631;28;20045;-70
2022/07/12 10:03:47;;;;;;;0.47;0.28;;;;;;;39.30;nan;101347.91;5026237;28;20611;-70
2022/07/12 10:06:22;;;;;;;0.20;0.20;;;;;;;39.28;nan;101344.66;5026699;28;20097;-69
2022/07/12 10:08:47;;;;;;;0.30;0.20;;;;;;;39.24;nan;101349.25;5027109;28;20467;-70
2022/07/12 10:11:13;;;;;;;0.38;0.20;;;;;;;38.30;nan;101352.28;5026381;28;20279;-70
2022/07/12 10:13:39;;;;;;;0.20;0.20;;;;;;;38.08;nan;101352.38;5025941;28;20041;-71
2022/07/12 10:16:07;;;;;;;0.30;0.25;;;;;;;38.75;nan;101349.34;5026251;28;20106;-70
2022/07/12 10:18:33;;;;;;;0.40;0.30;;;;;;;38.67;nan;101350.97;5026276;28;20513;-70
2022/07/12 10:20:58;;;;;;;0.30;0.30;;;;;;;38.05;nan;101353.84;5027279;28;20033;-70
2022/07/12 10:23:27;;;;;;;0.20;0.20;;;;;;;37.88;nan;101356.47;5028772;28;20029;-70
2022/07/12 10:25:53;;;;;;;0.20;0.20;;;;;;;38.55;nan;101347.22;5028769;28;20291;-70
2022/07/12 10:28:19;;;;;;;0.30;0.30;;;;;;;39.06;nan;101354.75;5027399;28;20072;-70
2022/07/12 10:30:50;;;;;;;0.68;0.30;;;;;;;39.38;nan;101362.91;5028567;28;20053;-70
2022/07/12 10:33:23;;;;;;;0.30;0.30;;;;;;;39.88;nan;101357.63;5032828;28;20031;-70
2022/07/12 10:35:58;;;;;;;0.30;0.30;;;;;;;40.17;nan;101347.75;5028534;28;20049;-70
2022/07/12 10:38:25;;;;;;;0.45;0.30;;;;;;;40.43;nan;101349.56;5027488;28;20562;-70
2022/07/12 10:40:51;;;;;;;0.35;0.30;;;;;;;40.35;nan;101345.72;5033722;28;20033;-70
2022/07/12 10:43:19;;;;;;;0.22;0.22;;;;;;;40.17;nan;101342.19;5028097;28;20389;-70
2022/07/12 10:45:47;;;;;;;0.30;0.28;;;;;;;40.45;nan;101338.97;5026079;28;20378;-71
2022/07/12 10:48:12;;;;;;;0.20;0.20;;;;;;;40.64;nan;101332.97;5024707;28;20506;-71
2022/07/12 10:50:55;;;;;;;0.37;0.20;;;;;;;41.48;nan;101339.34;5021708;28;20112;-71
2022/07/12 10:53:32;;;;;;;0.32;0.20;;;;;;;41.68;nan;101337.66;5031275;28;20045;-71
2022/07/12 10:56:04;;;;;;;0.20;0.20;;;;;;;40.45;nan;101334.25;5026595;28;20601;-72
2022/07/12 10:58:31;;;;;;;0.25;0.25;;;;;;;40.51;nan;101340.41;5028976;28;20453;-71
2022/07/12 11:00:57;;;;;;;0.40;0.30;;;;;;;40.19;nan;101341.84;5028891;28;20574;-71
2022/07/12 11:03:23;;;;;;;0.30;0.30;;;;;;;39.74;nan;101345.09;5029433;28;20036;-71
2022/07/12 11:05:49;;;;;;;0.28;0.28;;;;;;;39.35;nan;101344.16;5026968;28;20128;-71
2022/07/12 11:08:15;;;;;;;0.35;0.22;;;;;;;39.67;nan;101345.63;5027666;28;20529;-71
2022/07/12 11:10:54;;;;;;;0.10;0.10;;;;;;;41.00;nan;101331.59;5026923;28;20400;-71
2022/07/12 11:13:24;;;;;;;0.68;0.28;;;;;;;41.62;nan;101336.28;5022503;28;20121;-71
2022/07/12 11:16:00;;;;;;;0.93;0.30;;;;;;;42.12;nan;101334.38;5027456;28;20029;-71
2022/07/12 11:18:29;;;;;;;0.28;0.28;;;;;;;41.55;nan;101330.47;5025761;28;20081;-70
2022/07/12 11:20:57;;;;;;;0.30;0.30;;;;;;;41.96;nan;101332.28;5026882;28;20087;-71
2022/07/12 11:23:26;;;;;;;0.40;0.30;;;;;;;42.08;nan;101325.13;5028817;28;20061;-71
2022/07/12 11:25:54;;;;;;;0.30;0.20;;;;;;;41.53;nan;101338.31;5026677;28;20084;-71
2022/07/12 11:28:20;;;;;;;0.57;0.32;;;;;;;41.67;nan;101335.22;5010740;28;20034;-70
2022/07/12 11:30:52;;;;;;;2.55;0.30;;;;;;;41.35;nan;101329.34;5028153;28;20033;-71
2022/07/12 11:33:18;;;;;;;0.73;0.30;;;;;;;42.38;nan;101326.53;5027215;28;20068;-70
2022/07/12 11:35:45;;;;;;;1.58;0.30;;;;;;;41.96;nan;101321.19;5012596;28;20033;-71
2022/07/12 11:38:10;;;;;;;0.30;0.22;;;;;;;41.45;nan;101322.53;5027643;28;20041;-71
2022/07/12 11:40:35;;;;;;;0.70;0.35;;;;;;;41.97;nan;101316.41;5035701;28;20025;-70
2022/07/12 11:43:03;;;;;;;1.38;0.30;;;;;;;41.33;nan;101313.03;5029438;28;20341;-70
2022/07/12 11:45:30;;;;;;;0.20;0.20;;;;;;;41.93;nan;101313.50;5028092;28;20128;-70
2022/07/12 11:47:57;;;;;;;0.40;0.30;;;;;;;42.98;nan;101306.44;5027848;28;20072;-71
2022/07/12 11:50:23;;;;;;;0.30;0.28;;;;;;;43.03;nan;101311.78;5026538;28;20037;-70
2022/07/12 11:52:48;;;;;;;0.20;0.20;;;;;;;43.11;nan;101307.22;5028825;28;20383;-70